createdAt,value
2019-03-02T00:01:56.322Z,22.23
2019-03-02T00:04:25.076Z,22.30
2019-03-02T00:06:53.828Z,23.20
2019-03-02T00:09:22.572Z,23.57
2019-03-02T00:11:52.951Z,22.65
2019-03-02T00:14:22.127Z,21.87
2019-03-02T00:16:52.386Z,22.50
2019-03-02T00:19:21.198Z,22.60
2019-03-02T00:21:50.205Z,24.13
2019-03-02T00:24:18.959Z,20.07
2019-03-02T00:26:47.698Z,20.27
2019-03-02T00:29:16.557Z,19.90
2019-03-02T00:31:45.516Z,21.20
2019-03-02T00:34:14.247Z,20.82
2019-03-02T00:36:42.983Z,19.63
2019-03-02T00:39:15.571Z,20.27
2019-03-02T00:41:43.668Z,20.03
2019-03-02T00:44:12.400Z,19.07
2019-03-02T00:46:41.220Z,18.30
2019-03-02T00:49:10.041Z,22.90
2019-03-02T00:51:38.791Z,18.93
2019-03-02T00:54:11.055Z,19.27
2019-03-02T00:56:42.568Z,18.13
2019-03-02T00:59:10.398Z,19.67
2019-03-02T01:01:39.270Z,17.17
2019-03-02T01:04:08.011Z,15.40
2019-03-02T01:06:36.806Z,17.37
2019-03-02T01:09:08.049Z,18.40
2019-03-02T01:11:38.439Z,19.82
2019-03-02T01:14:07.310Z,17.53
2019-03-02T01:16:36.072Z,17.37
2019-03-02T01:19:04.981Z,17.90
2019-03-02T01:21:33.737Z,16.97
2019-03-02T01:24:03.244Z,16.57
2019-03-02T01:26:32.951Z,16.83
2019-03-02T01:29:01.691Z,20.02
2019-03-02T01:31:30.430Z,16.07
2019-03-02T01:34:00.775Z,14.63
2019-03-02T01:36:32.240Z,13.77
2019-03-02T01:39:00.270Z,14.60
2019-03-02T01:41:29.075Z,13.37
2019-03-02T01:43:57.812Z,13.73
2019-03-02T01:46:26.616Z,13.07
2019-03-02T01:48:58.581Z,13.43
2019-03-02T01:51:25.811Z,13.13
2019-03-02T01:53:54.565Z,13.73
2019-03-02T01:56:23.432Z,13.60
2019-03-02T01:58:52.158Z,12.70
2019-03-02T02:01:24.701Z,15.03
2019-03-02T02:03:51.344Z,14.53
2019-03-02T02:06:21.332Z,15.30
2019-03-02T02:08:50.126Z,14.33
2019-03-02T02:11:18.989Z,15.43
2019-03-02T02:13:47.915Z,13.53
2019-03-02T02:16:16.680Z,13.03
2019-03-02T02:18:45.478Z,12.77
2019-03-02T02:21:15.490Z,13.22
2019-03-02T02:23:45.795Z,14.93
2019-03-02T02:26:14.722Z,15.00
2019-03-02T02:28:43.445Z,15.43
2019-03-02T02:31:12.299Z,16.37
2019-03-02T02:33:43.224Z,14.57
2019-03-02T02:36:14.028Z,15.77
2019-03-02T02:38:42.066Z,14.57
2019-03-02T02:41:11.323Z,17.00
2019-03-02T02:43:40.068Z,15.57
2019-03-02T02:46:08.880Z,14.63
2019-03-02T02:48:37.642Z,13.73
2019-03-02T02:51:09.692Z,15.47
2019-03-02T02:53:40.314Z,15.93
2019-03-02T02:56:07.304Z,14.00
2019-03-02T02:58:36.033Z,14.13
2019-03-02T03:01:05.548Z,16.07
2019-03-02T03:03:34.536Z,14.93
2019-03-02T03:06:03.253Z,15.50
2019-03-02T03:08:44.102Z,15.10
2019-03-02T03:11:13.482Z,13.70
2019-03-02T03:13:42.411Z,14.23
2019-03-02T03:16:16.532Z,14.20
2019-03-02T03:18:46.836Z,14.27
2019-03-02T03:21:12.932Z,15.73
2019-03-02T03:23:41.680Z,17.62
2019-03-02T03:26:10.490Z,16.10
2019-03-02T03:28:39.316Z,12.88
2019-03-02T03:31:21.879Z,14.77
2019-03-02T03:33:43.215Z,15.17
2019-03-02T03:36:09.130Z,14.30
2019-03-02T03:38:38.314Z,15.57
2019-03-02T03:41:07.105Z,16.27
2019-03-02T03:43:41.884Z,14.93
2019-03-02T03:46:06.316Z,17.27
2019-03-02T03:48:35.070Z,17.43
2019-03-02T03:51:03.806Z,17.67
2019-03-02T03:53:32.538Z,18.83
2019-03-02T03:56:04.162Z,18.50
2019-03-02T03:58:34.987Z,16.43
2019-03-02T04:01:02.713Z,15.43
2019-03-02T04:03:31.496Z,16.33
2019-03-02T04:06:00.391Z,16.07
2019-03-02T04:08:29.970Z,17.73
2019-03-02T04:11:00.160Z,14.83
2019-03-02T04:13:29.491Z,17.10
2019-03-02T04:15:58.247Z,15.83
2019-03-02T04:19:00.997Z,18.77
2019-03-02T04:21:38.514Z,17.13
2019-03-02T04:24:07.264Z,20.75
2019-03-02T04:26:38.079Z,15.03
2019-03-02T04:29:10.069Z,15.77
2019-03-02T04:31:37.352Z,16.00
2019-03-02T04:34:06.191Z,18.37
2019-03-02T04:36:34.933Z,17.80
2019-03-02T04:39:05.374Z,21.30
2019-03-02T04:41:35.696Z,24.25
2019-03-02T04:44:04.834Z,22.73
2019-03-02T04:46:33.596Z,24.10
2019-03-02T04:49:02.339Z,25.70
2019-03-02T04:51:31.448Z,23.98
2019-03-02T04:54:01.744Z,24.50
2019-03-02T04:56:30.632Z,23.77
2019-03-02T04:58:59.396Z,22.20
2019-03-02T05:01:28.122Z,25.00
2019-03-02T05:03:57.284Z,25.73
2019-03-02T05:06:27.109Z,25.57
2019-03-02T05:08:55.843Z,27.87
2019-03-02T05:11:24.594Z,24.50
2019-03-02T05:13:53.321Z,22.13
2019-03-02T05:16:22.078Z,22.40
2019-03-02T05:18:53.554Z,23.07
2019-03-02T05:21:22.997Z,25.10
2019-03-02T05:23:51.710Z,22.57
2019-03-02T05:26:20.443Z,23.87
2019-03-02T05:28:49.172Z,21.83
2019-03-02T05:31:17.921Z,26.07
2019-03-02T05:33:46.744Z,22.53
2019-03-02T05:36:15.493Z,22.57
2019-03-02T05:38:44.541Z,24.43
2019-03-02T05:41:13.446Z,26.27
2019-03-02T05:43:42.188Z,24.83
2019-03-02T05:46:10.932Z,23.53
2019-03-02T05:48:42.908Z,24.47
2019-03-02T05:51:10.161Z,24.23
2019-03-02T05:53:39.000Z,25.70
2019-03-02T05:56:07.800Z,24.67
2019-03-02T05:58:36.507Z,23.67
2019-03-02T06:01:05.324Z,24.73
2019-03-02T06:03:34.073Z,26.30
2019-03-02T06:06:02.823Z,24.27
2019-03-02T06:08:35.627Z,28.87
2019-03-02T06:11:03.409Z,27.53
2019-03-02T06:13:32.422Z,26.23
2019-03-02T06:16:01.222Z,25.63
2019-03-02T06:18:29.954Z,28.03
2019-03-02T06:20:58.683Z,29.50
2019-03-02T06:23:30.047Z,29.70
2019-03-02T06:25:58.851Z,30.43
2019-03-02T06:28:27.784Z,31.97
2019-03-02T06:30:57.213Z,31.50
2019-03-02T06:33:32.623Z,35.00
2019-03-02T06:36:04.754Z,35.73
2019-03-02T06:38:32.338Z,32.93
2019-03-02T06:41:02.316Z,33.47
2019-03-02T06:43:31.444Z,34.43
2019-03-02T06:46:03.190Z,34.43
2019-03-02T06:48:32.108Z,35.90
2019-03-02T06:51:02.431Z,35.87
2019-03-02T06:53:33.960Z,32.47
2019-03-02T06:56:08.118Z,33.80
2019-03-02T06:58:37.308Z,34.03
2019-03-02T07:01:06.311Z,34.37
2019-03-02T07:03:35.270Z,34.88
2019-03-02T07:06:04.376Z,37.73
2019-03-02T07:08:34.163Z,39.27
2019-03-02T07:11:04.378Z,33.83
2019-03-02T07:13:37.566Z,35.28
2019-03-02T07:16:06.580Z,38.33
2019-03-02T07:18:57.165Z,36.28
2019-03-02T07:21:26.295Z,38.47
2019-03-02T07:23:55.030Z,36.57
2019-03-02T07:26:25.454Z,32.40
2019-03-02T07:28:54.191Z,36.63
2019-03-02T07:31:23.552Z,36.50
2019-03-02T07:33:52.780Z,38.45
2019-03-02T07:36:22.210Z,42.53
2019-03-02T07:38:53.074Z,37.60
2019-03-02T07:41:23.108Z,38.63
2019-03-02T07:43:52.344Z,42.33
2019-03-02T07:46:21.085Z,52.43
2019-03-02T07:48:50.648Z,53.47
2019-03-02T07:51:22.486Z,47.07
2019-03-02T07:53:51.647Z,48.50
2019-03-02T07:56:20.582Z,43.20
2019-03-02T07:58:54.848Z,47.60
2019-03-02T08:01:31.110Z,46.53
2019-03-02T08:04:01.025Z,55.07
2019-03-02T08:06:31.108Z,52.50
2019-03-02T08:08:59.872Z,54.63
2019-03-02T08:11:28.907Z,53.23
2019-03-02T08:13:58.016Z,51.63
2019-03-02T08:16:27.116Z,49.05
2019-03-02T08:18:55.893Z,49.07
2019-03-02T08:21:25.082Z,50.25
2019-03-02T08:23:55.278Z,49.70
2019-03-02T08:26:24.336Z,49.27
2019-03-02T08:28:53.217Z,51.80
2019-03-02T08:31:22.285Z,48.97
2019-03-02T08:33:53.393Z,49.57
2019-03-02T08:36:22.540Z,50.93
2019-03-02T08:38:51.551Z,52.40
2019-03-02T08:41:20.609Z,52.13
2019-03-02T08:43:49.708Z,57.17
2019-03-02T08:46:18.781Z,49.80
2019-03-02T08:48:47.705Z,56.90
2019-03-02T08:51:16.494Z,54.60
2019-03-02T08:53:45.388Z,75.70
2019-03-02T08:56:14.372Z,60.10
2019-03-02T08:58:43.397Z,50.80
2019-03-02T09:01:15.342Z,48.37
2019-03-02T09:03:43.057Z,51.00
2019-03-02T09:06:12.057Z,51.73
2019-03-02T09:08:41.611Z,52.43
2019-03-02T09:11:11.328Z,52.97
2019-03-02T09:13:42.273Z,55.10
2019-03-02T09:16:11.360Z,52.63
2019-03-02T09:18:45.460Z,52.63
2019-03-02T09:21:12.413Z,54.17
2019-03-02T09:23:41.693Z,53.47
2019-03-02T09:26:11.495Z,47.35
2019-03-02T09:28:40.481Z,51.10
2019-03-02T09:31:09.369Z,50.97
2019-03-02T09:33:38.309Z,50.90
2019-03-02T09:36:07.084Z,49.67
2019-03-02T09:38:36.005Z,57.45
2019-03-02T09:41:05.344Z,45.17
2019-03-02T09:43:34.362Z,46.93
2019-03-02T09:46:08.514Z,49.40
2019-03-02T09:48:39.044Z,47.37
2019-03-02T09:51:07.806Z,51.80
2019-03-02T09:53:36.681Z,50.28
2019-03-02T09:56:07.099Z,47.27
2019-03-02T09:58:36.045Z,48.97
2019-03-02T10:01:05.137Z,44.90
2019-03-02T10:03:34.553Z,45.20
2019-03-02T10:06:03.430Z,45.53
2019-03-02T10:08:32.328Z,47.03
2019-03-02T10:11:02.649Z,49.20
2019-03-02T10:13:31.857Z,48.10
2019-03-02T10:16:04.055Z,46.83
2019-03-02T10:18:31.110Z,42.37
2019-03-02T10:21:00.083Z,44.10
2019-03-02T10:23:28.997Z,41.53
2019-03-02T10:25:58.098Z,41.83
2019-03-02T10:28:29.965Z,42.70
2019-03-02T10:30:58.346Z,42.73
2019-03-02T10:33:28.662Z,39.57
2019-03-02T10:35:57.562Z,40.80
2019-03-02T10:38:27.317Z,42.73
2019-03-02T10:40:56.070Z,43.00
2019-03-02T10:43:24.836Z,43.13
2019-03-02T10:45:56.765Z,41.07
2019-03-02T10:48:25.512Z,37.75
2019-03-02T10:50:55.992Z,39.77
2019-03-02T10:53:25.182Z,36.58
2019-03-02T10:55:55.369Z,37.60
2019-03-02T10:58:24.176Z,37.03
2019-03-02T11:00:52.946Z,34.03
2019-03-02T11:03:27.864Z,38.00
2019-03-02T11:06:20.675Z,37.37
2019-03-02T11:09:22.221Z,34.43
2019-03-02T11:12:06.752Z,33.98
2019-03-02T11:15:09.620Z,34.90
2019-03-02T11:17:51.900Z,33.37
2019-03-02T11:20:41.376Z,31.33
2019-03-02T11:23:27.876Z,35.97
2019-03-02T11:26:28.215Z,35.63
2019-03-02T11:29:05.286Z,35.48
2019-03-02T11:31:41.966Z,35.73
2019-03-02T11:34:18.305Z,35.77
2019-03-02T11:37:00.220Z,36.57
2019-03-02T11:39:50.034Z,32.43
2019-03-02T11:42:51.573Z,35.50
2019-03-02T11:45:49.629Z,37.30
2019-03-02T11:48:56.762Z,33.10
2019-03-02T11:51:29.554Z,38.15
2019-03-02T11:54:15.090Z,37.73
2019-03-02T11:56:55.268Z,40.23
2019-03-02T11:59:30.690Z,38.23
2019-03-02T12:02:19.926Z,34.80
2019-03-02T12:05:05.663Z,34.33
2019-03-02T12:07:56.559Z,37.80
2019-03-02T12:10:36.101Z,37.98
2019-03-02T12:13:23.508Z,37.13
2019-03-02T12:16:11.626Z,38.73
2019-03-02T12:19:06.466Z,36.87
2019-03-02T12:22:02.432Z,36.60
2019-03-02T12:24:54.735Z,35.75
2019-03-02T12:27:44.340Z,31.67
2019-03-02T12:30:35.619Z,32.27
2019-03-02T12:33:22.398Z,29.23
2019-03-02T12:36:12.522Z,31.27
2019-03-02T12:38:55.640Z,28.38
2019-03-02T12:41:42.402Z,29.83
2019-03-02T12:44:21.547Z,29.70
2019-03-02T12:47:09.276Z,30.33
2019-03-02T12:49:57.404Z,31.53
2019-03-02T12:52:36.391Z,32.40
2019-03-02T12:55:30.804Z,30.65
2019-03-02T12:58:31.049Z,27.90
2019-03-02T13:01:04.566Z,29.67
2019-03-02T13:03:56.409Z,32.17
2019-03-02T13:06:46.191Z,29.47
2019-03-02T13:09:24.739Z,30.77
2019-03-02T13:12:07.175Z,37.97
2019-03-02T13:14:54.980Z,34.37
2019-03-02T13:17:45.729Z,33.77
2019-03-02T13:20:39.472Z,34.17
2019-03-02T13:23:42.696Z,31.15
2019-03-02T13:26:35.883Z,32.88
2019-03-02T13:29:13.010Z,29.40
2019-03-02T13:32:15.852Z,29.70
2019-03-02T13:34:58.840Z,25.63
2019-03-02T13:37:57.090Z,28.85
2019-03-02T13:40:58.443Z,29.57
2019-03-02T13:43:55.302Z,26.90
2019-03-02T13:46:31.206Z,25.67
2019-03-02T13:49:29.308Z,21.80
2019-03-02T13:52:16.095Z,28.83
2019-03-02T13:54:50.946Z,27.17
2019-03-02T13:57:41.778Z,27.20
2019-03-02T14:00:26.549Z,29.57
2019-03-02T14:03:14.003Z,25.40
2019-03-02T14:05:59.213Z,25.90
2019-03-02T14:08:50.035Z,25.37
2019-03-02T14:11:41.226Z,24.37
2019-03-02T14:14:21.716Z,25.27
2019-03-02T14:17:16.793Z,23.73
2019-03-02T14:20:02.810Z,26.13
2019-03-02T14:23:09.000Z,34.83
2019-03-02T14:26:02.685Z,22.23
2019-03-02T14:28:50.556Z,15.97
2019-03-02T14:31:34.056Z,16.97
2019-03-02T14:34:27.470Z,20.30
2019-03-02T14:37:12.762Z,15.17
2019-03-02T14:39:57.123Z,10.37
2019-03-02T14:42:32.342Z,12.53
2019-03-02T14:45:32.326Z,18.10
2019-03-02T14:48:19.100Z,13.50
2019-03-02T14:50:56.173Z,12.73
2019-03-02T14:53:34.871Z,10.43
2019-03-02T14:56:22.705Z,9.83
2019-03-02T14:59:19.671Z,11.57
2019-03-02T15:02:06.326Z,13.23
2019-03-02T15:04:56.422Z,8.20
2019-03-02T15:07:47.277Z,11.43
2019-03-02T15:10:44.143Z,17.40
2019-03-02T15:13:26.053Z,16.67
2019-03-02T15:16:12.393Z,8.13
2019-03-02T15:18:49.042Z,8.27
2019-03-02T15:21:35.602Z,9.63
2019-03-02T15:24:11.328Z,15.80
2019-03-02T15:26:47.377Z,12.27
2019-03-02T15:29:46.275Z,7.27
2019-03-02T15:32:21.767Z,8.13
2019-03-02T15:35:10.356Z,11.67
2019-03-02T15:38:04.185Z,14.23
2019-03-02T15:40:40.853Z,12.30
2019-03-02T15:43:25.201Z,12.73
2019-03-02T15:46:06.278Z,8.10
2019-03-02T15:49:07.384Z,8.10
2019-03-02T15:51:55.069Z,12.90
2019-03-02T15:54:33.820Z,12.43
2019-03-02T15:57:11.734Z,12.80
2019-03-02T15:59:47.836Z,12.67
2019-03-02T16:02:38.234Z,9.73
2019-03-02T16:05:30.404Z,9.93
2019-03-02T16:08:17.871Z,10.93
2019-03-02T16:11:03.808Z,11.97
2019-03-02T16:13:56.073Z,9.15
2019-03-02T16:16:51.380Z,11.90
2019-03-02T16:19:30.683Z,10.77
2019-03-02T16:22:08.887Z,7.37
2019-03-02T16:24:56.992Z,11.43
2019-03-02T16:27:46.644Z,9.53
2019-03-02T16:30:39.078Z,12.23
2019-03-02T16:33:32.509Z,11.13
2019-03-02T16:36:11.368Z,11.73
2019-03-02T16:39:02.931Z,13.03
2019-03-02T16:41:57.752Z,19.83
2019-03-02T16:44:42.520Z,12.60
2019-03-02T16:47:28.710Z,8.53
2019-03-02T16:50:12.845Z,8.38
2019-03-02T16:52:58.593Z,10.70
2019-03-02T16:55:49.246Z,7.73
2019-03-02T16:58:44.166Z,8.63
2019-03-02T17:01:31.267Z,7.63
2019-03-02T17:04:19.882Z,7.40
2019-03-02T17:06:55.063Z,5.33
2019-03-02T17:09:30.337Z,8.83
2019-03-02T17:12:17.258Z,8.47
2019-03-02T17:15:18.927Z,8.47
2019-03-02T17:18:10.518Z,6.00
2019-03-02T17:20:57.216Z,6.50
2019-03-02T17:24:00.436Z,8.25
2019-03-02T17:27:00.340Z,20.45
2019-03-02T17:29:54.254Z,9.25
2019-03-02T17:33:00.690Z,10.15
2019-03-02T17:35:42.883Z,7.10
2019-03-02T17:38:23.862Z,5.23
2019-03-02T17:41:14.958Z,6.00
2019-03-02T17:44:03.165Z,6.47
2019-03-02T17:46:39.054Z,7.37
2019-03-02T17:49:31.698Z,8.73
2019-03-02T17:52:21.408Z,9.23
2019-03-02T17:54:58.905Z,5.35
2019-03-02T17:57:45.675Z,7.80
2019-03-02T18:00:22.058Z,8.77
2019-03-02T18:03:13.473Z,6.63
2019-03-02T18:06:00.056Z,7.63
2019-03-02T18:08:53.262Z,9.23
2019-03-02T18:11:32.369Z,7.13
2019-03-02T18:14:08.784Z,7.10
2019-03-02T18:16:46.074Z,10.23
2019-03-02T18:19:16.975Z,7.55
2019-03-02T18:21:45.413Z,8.37
2019-03-02T18:24:16.209Z,8.40
2019-03-02T18:26:45.059Z,7.43
2019-03-02T18:29:16.051Z,14.17
2019-03-02T18:31:46.265Z,7.83
2019-03-02T18:34:20.025Z,4.60
2019-03-02T18:36:55.299Z,7.47
2019-03-02T18:39:25.578Z,8.73
2019-03-02T18:41:55.153Z,9.87
2019-03-02T18:44:23.927Z,7.43
2019-03-02T18:46:53.166Z,9.03
2019-03-02T18:49:29.430Z,8.70
2019-03-02T18:52:08.101Z,7.77
2019-03-02T18:54:36.836Z,5.67
2019-03-02T18:57:05.756Z,6.67
2019-03-02T18:59:35.206Z,8.17
2019-03-02T19:02:04.973Z,8.47
2019-03-02T19:04:37.234Z,6.20
2019-03-02T19:07:07.249Z,6.17
2019-03-02T19:09:36.438Z,4.10
2019-03-02T19:12:06.591Z,4.10
2019-03-02T19:14:35.727Z,6.43
2019-03-02T19:17:05.962Z,3.70
2019-03-02T19:19:38.757Z,4.63
2019-03-02T19:22:07.512Z,3.90
2019-03-02T19:24:36.235Z,5.97
2019-03-02T19:27:04.986Z,5.33
2019-03-02T19:29:33.743Z,4.30
2019-03-02T19:32:04.841Z,3.33
2019-03-02T19:34:35.092Z,4.60
2019-03-02T19:37:04.615Z,5.00
2019-03-02T19:39:33.370Z,4.80
2019-03-02T19:42:02.196Z,7.00
2019-03-02T19:44:30.911Z,3.93
2019-03-02T19:46:59.651Z,5.30
2019-03-02T19:49:28.432Z,5.07
2019-03-02T19:51:57.189Z,4.83
2019-03-02T19:54:25.969Z,4.85
2019-03-02T19:56:54.710Z,4.70
2019-03-02T19:59:23.461Z,3.70
2019-03-02T20:01:52.209Z,3.70
2019-03-02T20:04:21.030Z,4.77
2019-03-02T20:06:49.839Z,3.67
2019-03-02T20:09:18.922Z,4.97
2019-03-02T20:11:47.712Z,3.95
2019-03-02T20:14:16.496Z,12.63
2019-03-02T20:16:45.225Z,5.47
2019-03-02T20:19:14.073Z,4.03
2019-03-02T20:21:42.820Z,3.20
2019-03-02T20:24:11.574Z,5.17
2019-03-02T20:26:41.287Z,4.50
2019-03-02T20:29:10.026Z,3.10
2019-03-02T20:31:38.859Z,3.93
2019-03-02T20:34:07.606Z,3.87
2019-03-02T20:36:36.376Z,3.50
2019-03-02T20:39:07.145Z,2.53
2019-03-02T20:41:35.998Z,4.23
2019-03-02T20:44:04.940Z,2.60
2019-03-02T20:46:33.705Z,2.23
2019-03-02T20:49:02.476Z,3.10
2019-03-02T20:51:31.216Z,2.37
2019-03-02T20:53:59.997Z,1.80
2019-03-02T20:56:28.745Z,2.00
2019-03-02T20:58:57.492Z,2.50
2019-03-02T21:01:27.009Z,2.62
2019-03-02T21:03:55.773Z,2.33
2019-03-02T21:06:24.616Z,3.17
2019-03-02T21:08:53.363Z,3.40
2019-03-02T21:11:22.176Z,9.03
2019-03-02T21:13:51.180Z,2.77
2019-03-02T21:16:20.239Z,3.00
2019-03-02T21:18:49.109Z,3.17
2019-03-02T21:21:18.110Z,4.23
2019-03-02T21:23:46.826Z,3.60
2019-03-02T21:26:15.600Z,4.03
2019-03-02T21:28:44.352Z,3.87
2019-03-02T21:31:13.124Z,4.77
2019-03-02T21:33:41.896Z,5.72
2019-03-02T21:36:10.713Z,4.23
2019-03-02T21:38:39.443Z,4.33
2019-03-02T21:41:08.228Z,3.43
2019-03-02T21:43:37.099Z,3.83
2019-03-02T21:46:05.993Z,4.17
2019-03-02T21:48:34.726Z,3.67
2019-03-02T21:51:04.081Z,3.77
2019-03-02T21:53:32.811Z,4.43
2019-03-02T21:56:01.640Z,3.72
2019-03-02T21:58:30.394Z,5.60
2019-03-02T22:00:59.170Z,5.25
2019-03-02T22:03:27.890Z,5.67
2019-03-02T22:05:57.215Z,4.03
2019-03-02T22:08:25.962Z,5.80
2019-03-02T22:10:58.846Z,4.60
2019-03-02T22:13:27.594Z,5.20
2019-03-02T22:15:56.433Z,3.77
2019-03-02T22:18:25.159Z,6.20
2019-03-02T22:20:53.952Z,5.37
2019-03-02T22:23:22.688Z,7.20
2019-03-02T22:25:51.514Z,5.90
2019-03-02T22:28:20.255Z,7.37
2019-03-02T22:30:48.995Z,7.13
2019-03-02T22:33:19.185Z,6.80
2019-03-02T22:35:48.016Z,5.83
2019-03-02T22:38:17.016Z,6.10
2019-03-02T22:40:45.788Z,6.73
2019-03-02T22:43:14.520Z,8.10
2019-03-02T22:45:44.837Z,9.45
2019-03-02T22:48:13.622Z,7.43
2019-03-02T22:50:42.907Z,7.62
2019-03-02T22:53:11.973Z,9.40
2019-03-02T22:55:42.734Z,8.80
2019-03-02T22:58:12.812Z,7.77
2019-03-02T23:01:23.307Z,8.10
2019-03-02T23:03:52.662Z,9.03
2019-03-02T23:06:21.615Z,8.37
2019-03-02T23:08:50.335Z,11.03
2019-03-02T23:11:19.130Z,10.73
2019-03-02T23:13:48.207Z,9.20
2019-03-02T23:16:16.969Z,9.40
2019-03-02T23:18:45.707Z,7.60
2019-03-02T23:21:14.483Z,9.10
2019-03-02T23:23:43.227Z,9.18
2019-03-02T23:26:13.776Z,12.00
2019-03-02T23:28:42.557Z,7.97
2019-03-02T23:31:11.571Z,8.37
2019-03-02T23:33:40.328Z,10.32
2019-03-02T23:36:11.728Z,9.00
2019-03-02T23:38:40.685Z,10.83
2019-03-02T23:41:10.247Z,6.67
2019-03-02T23:43:39.111Z,10.13
2019-03-02T23:46:07.917Z,10.67
2019-03-02T23:48:36.746Z,9.30
2019-03-02T23:51:05.543Z,15.20
2019-03-02T23:53:34.339Z,12.03
2019-03-02T23:56:03.325Z,11.33
2019-03-02T23:58:32.115Z,11.43
